Time;durP1;ratioP1;P1;durP2;ratioP2;P2;SDS_P1;SDS_P2;PMS_P1;PMS_P2;Temp;Humidity;BMP_temperature;BMP_pressure;BME280_temperature;BME280_humidity;BME280_pressure;Samples;Min_cycle;Max_cycle;Signal;HPM_P1;HPM_P2
2023/07/19 00:00:55;;;;;;;17.55;6.28;;;;;;;24.39;100.00;94495.16;6217837;23;19996;-90
2023/07/19 00:03:21;;;;;;;20.80;5.65;;;;;;;24.81;100.00;94492.88;6191195;23;20000;-89
2023/07/19 00:05:48;;;;;;;21.58;6.38;;;;;;;25.13;96.78;94492.66;6167285;23;20008;-88
2023/07/19 00:08:14;;;;;;;24.73;6.72;;;;;;;25.27;89.56;94490.22;6166907;23;20000;-88
2023/07/19 00:10:40;;;;;;;22.45;5.95;;;;;;;25.22;93.33;94490.50;6191655;23;20039;-87
2023/07/19 00:13:05;;;;;;;23.13;6.07;;;;;;;25.26;89.76;94486.00;6166799;23;19997;-89
2023/07/19 00:15:31;;;;;;;16.40;5.57;;;;;;;25.33;85.66;94484.53;6191417;23;20015;-89
2023/07/19 00:17:57;;;;;;;18.27;6.80;;;;;;;25.35;82.99;94487.63;6166928;23;20052;-88
2023/07/19 00:20:22;;;;;;;15.30;5.68;;;;;;;25.53;78.01;94480.66;6217534;23;20067;-89
2023/07/19 00:22:48;;;;;;;17.48;6.32;;;;;;;25.44;82.12;94482.00;6167089;23;20000;-90
2023/07/19 00:25:14;;;;;;;19.20;5.75;;;;;;;25.34;83.85;94478.03;6190994;23;20150;-89
2023/07/19 00:27:39;;;;;;;16.73;5.97;;;;;;;25.25;78.65;94479.09;6191369;23;19997;-90
2023/07/19 00:30:05;;;;;;;16.80;6.15;;;;;;;24.98;100.00;94476.34;6166684;23;20037;-88
2023/07/19 00:32:31;;;;;;;21.23;7.30;;;;;;;24.61;100.00;94484.84;6166721;23;20028;-89
2023/07/19 00:34:56;;;;;;;13.63;5.70;;;;;;;24.81;99.93;94479.47;6166698;23;20023;-90
2023/07/19 00:37:21;;;;;;;16.55;5.45;;;;;;;25.40;74.56;94466.66;6166003;23;19997;-88
2023/07/19 00:39:47;;;;;;;25.85;5.20;;;;;;;25.60;74.67;94471.94;6191193;23;20003;-90
2023/07/19 00:42:12;;;;;;;23.33;5.78;;;;;;;26.21;63.40;94465.84;6166236;23;20001;-88
2023/07/19 00:44:38;;;;;;;22.08;6.20;;;;;;;25.95;63.48;94459.38;6191592;23;20000;-89
2023/07/19 00:47:03;;;;;;;18.50;5.53;;;;;;;26.25;60.66;94453.25;6191221;23;19997;-89
2023/07/19 00:49:32;;;;;;;18.40;5.57;;;;;;;26.32;58.86;94456.03;6166500;23;20009;-89
2023/07/19 00:52:02;;;;;;;17.38;5.35;;;;;;;26.54;56.66;94453.56;6166614;23;19997;-89
2023/07/19 00:54:28;;;;;;;17.45;5.15;;;;;;;26.66;55.04;94449.84;6166323;23;20027;-89
2023/07/19 00:56:54;;;;;;;19.80;5.50;;;;;;;26.98;52.00;94440.56;6166453;23;20004;-89
2023/07/19 00:59:20;;;;;;;19.00;5.63;;;;;;;26.87;52.00;94443.94;6166566;23;20000;-88
2023/07/19 01:01:46;;;;;;;17.80;5.30;;;;;;;27.02;51.47;94442.13;6191298;23;20007;-89
2023/07/19 01:04:12;;;;;;;28.25;6.18;;;;;;;27.05;50.18;94437.94;6190877;23;20000;-88
2023/07/19 01:06:38;;;;;;;27.73;6.50;;;;;;;26.98;49.50;94427.88;6191130;23;20000;-88
2023/07/19 01:09:03;;;;;;;17.85;5.00;;;;;;;27.28;47.93;94432.34;6166580;23;19996;-88
2023/07/19 01:11:29;;;;;;;19.90;5.18;;;;;;;27.14;48.87;94443.78;6166560;23;19996;-89
2023/07/19 01:13:55;;;;;;;19.90;5.75;;;;;;;26.95;48.82;94439.38;6166249;23;20005;-89
2023/07/19 01:16:21;;;;;;;18.15;4.72;;;;;;;26.71;48.92;94443.38;6166432;23;20564;-89
2023/07/19 01:18:47;;;;;;;21.90;5.30;;;;;;;26.47;50.38;94446.22;6190719;23;20039;-89
2023/07/19 01:21:12;;;;;;;18.98;4.75;;;;;;;26.56;50.67;94445.91;6191067;23;20046;-89
2023/07/19 01:23:39;;;;;;;16.75;5.50;;;;;;;26.54;50.01;94448.22;6191025;23;20310;-88
2023/07/19 01:26:04;;;;;;;20.35;5.43;;;;;;;26.32;50.67;94444.50;6165855;23;20398;-88
2023/07/19 01:28:30;;;;;;;16.58;5.50;;;;;;;26.15;53.23;94456.56;6165654;23;20036;-90
2023/07/19 01:30:55;;;;;;;14.05;4.93;;;;;;;25.64;58.08;94447.84;6166287;23;20008;-90
2023/07/19 01:33:21;;;;;;;17.90;6.00;;;;;;;25.13;81.66;94450.53;6190144;23;20032;-90
2023/07/19 01:35:46;;;;;;;16.25;6.07;;;;;;;24.87;91.35;94450.47;6165929;23;20003;-90
2023/07/19 01:38:11;;;;;;;15.18;5.22;;;;;;;24.89;92.92;94446.31;6166417;23;20456;-90
2023/07/19 01:40:37;;;;;;;16.95;5.20;;;;;;;24.43;100.00;94455.84;6190534;23;20067;-89
2023/07/19 01:43:02;;;;;;;12.93;5.65;;;;;;;24.46;98.72;94456.25;6165906;23;19997;-89
2023/07/19 01:45:28;;;;;;;18.33;5.40;;;;;;;23.98;82.61;94459.91;6166698;23;19996;-89
2023/07/19 01:47:54;;;;;;;16.75;4.65;;;;;;;23.92;76.00;94459.41;6190919;23;20389;-89
2023/07/19 01:50:19;;;;;;;19.17;5.10;;;;;;;23.68;80.05;94457.75;6165601;23;20012;-89
2023/07/19 01:52:45;;;;;;;15.55;4.75;;;;;;;23.71;81.97;94454.38;6191444;23;20001;-89
2023/07/19 01:55:10;;;;;;;11.75;5.22;;;;;;;23.85;81.95;94445.84;6166313;23;20005;-89
2023/07/19 01:57:36;;;;;;;21.13;5.72;;;;;;;23.77;82.43;94455.63;6167302;23;20004;-89
2023/07/19 02:00:02;;;;;;;21.58;5.95;;;;;;;23.60;80.88;94453.34;6168297;23;19996;-89
2023/07/19 02:02:28;;;;;;;26.35;5.60;;;;;;;23.40;84.41;94448.72;6143800;23;20349;-89
2023/07/19 02:04:54;;;;;;;17.88;5.78;;;;;;;23.30;83.75;94449.25;6168462;23;20054;-90
2023/07/19 02:07:20;;;;;;;16.38;5.40;;;;;;;23.33;85.17;94443.22;6192443;23;20000;-88
2023/07/19 02:09:46;;;;;;;12.32;4.75;;;;;;;23.34;86.91;94434.09;6192680;23;20004;-89
2023/07/19 02:12:12;;;;;;;17.77;4.95;;;;;;;23.52;81.20;94431.03;6218772;23;20066;-89
2023/07/19 02:14:37;;;;;;;14.90;5.50;;;;;;;23.44;83.20;94438.13;6167900;23;19997;-89
2023/07/19 02:17:04;;;;;;;27.00;5.93;;;;;;;23.52;83.20;94437.16;6192720;23;20008;-89
2023/07/19 02:19:30;;;;;;;18.83;5.53;;;;;;;23.12;92.66;94433.56;6167401;23;19997;-89
2023/07/19 02:21:55;;;;;;;20.13;5.60;;;;;;;22.99;89.86;94434.75;6218669;23;20295;-89
2023/07/19 02:24:21;;;;;;;21.85;6.00;;;;;;;22.81;94.58;94435.13;6193035;23;19992;-88
2023/07/19 02:26:46;;;;;;;13.50;5.22;;;;;;;22.83;93.49;94443.56;6167925;23;20457;-89
2023/07/19 02:29:12;;;;;;;19.02;6.20;;;;;;;22.98;97.36;94449.25;6167894;23;20007;-88
2023/07/19 02:31:37;;;;;;;22.17;6.35;;;;;;;22.92;96.85;94440.72;6192498;23;20001;-89
2023/07/19 02:34:05;;;;;;;17.75;6.13;;;;;;;22.95;100.00;94442.69;6167884;23;20001;-89
2023/07/19 02:36:31;;;;;;;23.33;7.10;;;;;;;23.06;100.00;94445.63;6167941;23;20083;-89
2023/07/19 02:38:56;;;;;;;15.30;6.88;;;;;;;23.44;100.00;94444.22;6167894;23;20087;-90
2023/07/19 02:41:22;;;;;;;16.08;6.75;;;;;;;23.41;100.00;94436.91;6167600;23;20079;-89
2023/07/19 02:43:47;;;;;;;16.38;6.95;;;;;;;23.27;100.00;94431.25;6192983;23;20005;-89
2023/07/19 02:46:12;;;;;;;27.45;7.22;;;;;;;23.21;100.00;94446.72;6167572;23;20078;-89
2023/07/19 02:48:38;;;;;;;23.38;7.30;;;;;;;23.24;100.00;94439.94;6167810;23;20000;-89
2023/07/19 02:51:03;;;;;;;19.65;6.80;;;;;;;23.27;100.00;94436.59;6167119;23;20004;-90
2023/07/19 02:53:29;;;;;;;22.60;7.72;;;;;;;23.06;100.00;94429.59;6166707;23;20083;-88
2023/07/19 02:55:54;;;;;;;20.13;7.30;;;;;;;23.14;100.00;94423.28;6218795;23;20051;-89
2023/07/19 02:58:20;;;;;;;19.42;7.15;;;;;;;23.06;100.00;94421.59;6192168;23;20011;-88
2023/07/19 03:00:45;;;;;;;21.25;7.05;;;;;;;23.22;100.00;94418.88;6167692;23;19999;-89
2023/07/19 03:03:12;;;;;;;20.13;7.03;;;;;;;22.99;100.00;94411.50;6192280;23;20008;-88
2023/07/19 03:05:40;;;;;;;17.60;7.07;;;;;;;23.01;100.00;94414.59;6167985;23;20294;-90
2023/07/19 03:08:09;;;;;;;20.80;7.03;;;;;;;22.95;100.00;94412.53;6167123;23;19993;-88
2023/07/19 03:10:35;;;;;;;20.67;7.18;;;;;;;22.87;100.00;94407.00;6167652;23;20013;-88
2023/07/19 03:13:00;;;;;;;14.95;7.13;;;;;;;22.70;100.00;94407.38;6218802;23;20007;-89
2023/07/19 03:15:27;;;;;;;15.88;6.97;;;;;;;22.74;100.00;94410.91;6167365;23;19997;-88
2023/07/19 03:17:52;;;;;;;17.48;6.75;;;;;;;22.81;100.00;94408.41;6192636;23;20003;-88
2023/07/19 03:20:18;;;;;;;23.90;7.45;;;;;;;22.68;100.00;94399.72;6167713;23;19996;-89
2023/07/19 03:22:43;;;;;;;16.02;6.88;;;;;;;22.51;100.00;94397.34;6167518;23;20338;-88
2023/07/19 03:25:09;;;;;;;19.45;7.38;;;;;;;22.43;100.00;94397.16;6191902;23;20028;-90
2023/07/19 03:27:34;;;;;;;20.95;8.38;;;;;;;22.47;100.00;94391.91;6192215;23;20286;-88
2023/07/19 03:30:00;;;;;;;17.20;8.25;;;;;;;22.45;100.00;94392.25;6191952;23;20071;-89
2023/07/19 03:32:28;;;;;;;17.48;8.02;;;;;;;22.57;100.00;94401.34;6167029;23;20309;-88
2023/07/19 03:34:53;;;;;;;19.90;7.65;;;;;;;22.54;100.00;94397.44;6167279;23;20005;-88
2023/07/19 03:37:18;;;;;;;18.63;7.57;;;;;;;22.53;100.00;94397.81;6166992;23;19997;-88
2023/07/19 03:39:44;;;;;;;23.75;8.30;;;;;;;22.29;100.00;94394.88;6166857;23;20297;-89
2023/07/19 03:42:10;;;;;;;20.38;7.90;;;;;;;22.27;100.00;94396.34;6192071;23;20024;-90
2023/07/19 03:44:35;;;;;;;22.45;8.60;;;;;;;22.16;100.00;94388.84;6166466;23;20434;-89
2023/07/19 03:47:00;;;;;;;25.30;9.32;;;;;;;22.09;100.00;94387.88;6191790;23;20071;-88
2023/07/19 03:49:26;;;;;;;25.55;9.82;;;;;;;21.71;100.00;94396.00;6191599;23;20000;-88
2023/07/19 03:51:52;;;;;;;23.92;8.77;;;;;;;21.97;100.00;94386.81;6167464;23;20024;-89
2023/07/19 03:54:17;;;;;;;25.10;9.20;;;;;;;21.68;100.00;94390.56;6191461;23;20067;-88
2023/07/19 03:56:43;;;;;;;18.52;8.40;;;;;;;21.97;100.00;94396.72;6191422;23;20071;-88
2023/07/19 03:59:09;;;;;;;26.92;10.30;;;;;;;21.96;100.00;94389.81;6166665;23;20000;-87
2023/07/19 04:01:34;;;;;;;22.63;9.65;;;;;;;21.96;100.00;94397.81;6191695;23;20283;-88
2023/07/19 04:04:00;;;;;;;26.00;9.82;;;;;;;21.75;100.00;94393.44;6191493;23;20072;-88
2023/07/19 04:06:25;;;;;;;29.52;10.57;;;;;;;21.74;100.00;94394.53;6166406;23;20075;-87
2023/07/19 04:08:51;;;;;;;26.00;10.35;;;;;;;21.97;100.00;94388.72;6166920;23;20062;-88
2023/07/19 04:11:16;;;;;;;22.02;9.95;;;;;;;22.22;100.00;94389.38;6191524;23;20000;-88
2023/07/19 04:13:42;;;;;;;17.30;8.80;;;;;;;22.12;100.00;94393.31;6166828;23;20083;-88
2023/07/19 04:16:07;;;;;;;20.13;9.40;;;;;;;22.17;100.00;94394.97;6166494;23;20087;-87
2023/07/19 04:18:33;;;;;;;28.27;10.48;;;;;;;22.14;100.00;94393.75;6190799;23;20349;-88
2023/07/19 04:20:58;;;;;;;21.30;9.38;;;;;;;22.05;100.00;94389.69;6166340;23;20087;-88
2023/07/19 04:23:25;;;;;;;23.98;10.07;;;;;;;22.12;100.00;94387.97;6166560;23;20000;-87
2023/07/19 04:25:50;;;;;;;25.60;10.18;;;;;;;22.01;100.00;94387.66;6166866;23;20000;-88
2023/07/19 04:28:16;;;;;;;25.17;9.95;;;;;;;22.09;100.00;94390.53;6191790;23;19992;-88
2023/07/19 04:30:43;;;;;;;24.67;9.88;;;;;;;22.22;100.00;94393.91;6166972;23;20001;-88
2023/07/19 04:33:09;;;;;;;25.35;8.82;;;;;;;22.22;100.00;94401.91;6166546;23;19992;-87
2023/07/19 04:35:34;;;;;;;25.90;9.38;;;;;;;22.24;100.00;94399.72;6166663;23;19996;-88
2023/07/19 04:38:00;;;;;;;28.73;9.25;;;;;;;22.51;100.00;94406.16;6191580;23;19997;-87
2023/07/19 04:40:25;;;;;;;24.23;9.25;;;;;;;22.43;100.00;94413.16;6166909;23;20404;-87
2023/07/19 04:42:51;;;;;;;31.15;9.45;;;;;;;22.78;100.00;94419.00;6165982;23;20481;-87
2023/07/19 04:45:16;;;;;;;20.08;8.80;;;;;;;22.85;100.00;94419.94;6166371;23;20016;-88
2023/07/19 04:47:42;;;;;;;18.55;8.15;;;;;;;22.91;100.00;94417.03;6166640;23;19996;-87
2023/07/19 04:50:09;;;;;;;17.00;6.97;;;;;;;23.07;100.00;94422.34;6166454;23;20004;-87
2023/07/19 04:52:36;;;;;;;19.23;8.35;;;;;;;23.14;100.00;94433.22;6191405;23;20074;-88
2023/07/19 04:55:03;;;;;;;20.60;7.85;;;;;;;23.30;100.00;94433.22;6166637;23;20395;-88
2023/07/19 04:57:29;;;;;;;16.33;8.35;;;;;;;23.23;100.00;94425.78;6191845;23;20382;-88
2023/07/19 04:59:54;;;;;;;18.38;7.68;;;;;;;23.11;100.00;94425.91;6190674;23;20015;-87
2023/07/19 05:02:20;;;;;;;22.67;8.00;;;;;;;23.25;100.00;94434.25;6217548;23;20000;-87
2023/07/19 05:04:45;;;;;;;21.95;9.00;;;;;;;23.29;100.00;94435.13;6190714;23;20011;-87
2023/07/19 05:07:11;;;;;;;19.42;8.52;;;;;;;23.57;100.00;94434.22;6217408;23;19997;-87
2023/07/19 05:09:36;;;;;;;21.67;8.48;;;;;;;23.11;100.00;94436.59;6217399;23;20090;-88
2023/07/19 05:12:02;;;;;;;23.90;8.93;;;;;;;23.36;100.00;94437.19;6165907;23;20004;-88
2023/07/19 05:14:28;;;;;;;12.77;8.02;;;;;;;23.53;100.00;94441.41;6166793;23;20168;-87
2023/07/19 05:16:53;;;;;;;19.67;8.65;;;;;;;23.23;100.00;94444.50;6165864;23;20000;-87
2023/07/19 05:19:19;;;;;;;24.25;8.90;;;;;;;23.13;100.00;94445.03;6166726;23;19992;-88
2023/07/19 05:21:44;;;;;;;19.88;8.63;;;;;;;23.44;100.00;94438.88;6166139;23;20075;-87
2023/07/19 05:24:11;;;;;;;21.65;9.38;;;;;;;22.94;100.00;94438.47;6191000;23;20440;-88
2023/07/19 05:26:37;;;;;;;22.27;9.05;;;;;;;23.54;100.00;94442.94;6190870;23;19997;-87
2023/07/19 05:29:03;;;;;;;16.05;7.60;;;;;;;23.75;100.00;94446.44;6191038;23;20398;-87
2023/07/19 05:34:51;;;;;;;21.00;8.50;;;;;;;23.53;100.00;94436.03;6216926;23;20058;-88
2023/07/19 05:37:16;;;;;;;19.30;9.02;;;;;;;23.77;100.00;94431.56;6166594;23;20000;-88
2023/07/19 05:39:42;;;;;;;16.70;8.40;;;;;;;23.72;100.00;94440.63;6166520;23;19993;-88
2023/07/19 05:42:07;;;;;;;37.67;9.68;;;;;;;23.57;100.00;94433.44;6191021;23;20457;-88
2023/07/19 05:44:33;;;;;;;21.05;9.10;;;;;;;23.78;100.00;94435.78;6165761;23;20008;-88
2023/07/19 05:46:58;;;;;;;21.25;9.23;;;;;;;24.07;100.00;94431.03;6166261;23;20000;-88
2023/07/19 05:49:24;;;;;;;21.52;8.55;;;;;;;24.32;100.00;94438.00;6190788;23;20004;-88
2023/07/19 05:55:12;;;;;;;24.52;9.52;;;;;;;23.91;100.00;94427.63;6217062;23;20000;-89
2023/07/19 05:57:39;;;;;;;17.55;8.18;;;;;;;24.48;100.00;94428.00;6190799;23;20041;-88
2023/07/19 06:00:13;;;;;;;23.00;8.20;;;;;;;24.51;100.00;94427.28;6190697;23;20047;-88
2023/07/19 06:02:39;;;;;;;24.67;8.45;;;;;;;24.69;100.00;94422.25;6192329;23;20012;-89
2023/07/19 06:05:05;;;;;;;26.00;8.25;;;;;;;24.79;100.00;94417.44;6191131;23;20004;-88
2023/07/19 06:07:31;;;;;;;22.45;8.50;;;;;;;24.78;100.00;94416.69;6190150;23;20008;-88
2023/07/19 06:09:56;;;;;;;21.55;8.63;;;;;;;25.07;100.00;94414.47;6191118;23;20005;-88
2023/07/19 06:12:22;;;;;;;16.50;7.18;;;;;;;25.15;100.00;94418.03;6166236;23;19996;-88
2023/07/19 06:14:47;;;;;;;17.52;7.90;;;;;;;25.25;100.00;94424.69;6190889;23;20059;-88
2023/07/19 06:17:12;;;;;;;19.60;8.23;;;;;;;25.34;100.00;94424.41;6190660;23;20394;-88
2023/07/19 06:19:38;;;;;;;14.82;7.10;;;;;;;25.24;100.00;94423.88;6164595;23;20000;-88
2023/07/19 06:22:03;;;;;;;27.15;8.93;;;;;;;25.08;100.00;94418.69;6165485;23;20158;-88
2023/07/19 06:24:29;;;;;;;18.65;8.02;;;;;;;24.85;100.00;94416.03;6166066;23;20001;-87
2023/07/19 06:26:55;;;;;;;22.83;7.55;;;;;;;25.15;100.00;94419.91;6190708;23;20413;-88
2023/07/19 06:29:21;;;;;;;19.80;7.38;;;;;;;25.39;100.00;94429.47;6190344;23;20001;-88
2023/07/19 06:35:09;;;;;;;19.83;7.47;;;;;;;25.86;100.00;94430.13;6216702;23;19999;-88
2023/07/19 06:37:34;;;;;;;22.10;6.97;;;;;;;26.00;100.00;94418.03;6165965;23;20005;-88
2023/07/19 06:40:03;;;;;;;22.88;7.82;;;;;;;26.17;100.00;94411.31;6165508;23;20024;-88
2023/07/19 06:42:29;;;;;;;14.73;7.40;;;;;;;26.26;100.00;94414.53;6190646;23;20005;-87
2023/07/19 06:44:56;;;;;;;15.82;7.35;;;;;;;26.00;100.00;94409.97;6167079;23;19996;-89
2023/07/19 06:47:22;;;;;;;18.90;7.47;;;;;;;26.13;100.00;94413.19;6192072;23;20004;-88
2023/07/19 06:49:47;;;;;;;20.05;7.78;;;;;;;25.92;100.00;94419.84;6191416;23;20039;-88
2023/07/19 06:52:13;;;;;;;20.00;7.28;;;;;;;26.32;100.00;94417.63;6167568;23;20004;-88
2023/07/19 06:54:39;;;;;;;17.45;7.32;;;;;;;26.20;100.00;94418.66;6192268;23;19996;-88
2023/07/19 06:57:13;;;;;;;16.00;7.25;;;;;;;26.34;100.00;94418.06;6192157;23;20028;-89
2023/07/19 06:59:49;;;;;;;;;;;;;;;;;;;;;
2023/07/19 07:12:12;;;;;;;25.00;7.80;;;;;;;26.74;100.00;94429.19;6202665;23;20329;-90
2023/07/19 07:14:49;;;;;;;;;;;;;;;;;;;;;
2023/07/19 07:17:19;;;;;;;19.33;7.38;;;;;;;27.30;100.00;94429.28;6193969;23;20027;-89
2023/07/19 07:19:45;;;;;;;20.63;7.70;;;;;;;27.78;100.00;94431.16;6192579;23;20021;-90
2023/07/19 07:22:10;;;;;;;22.92;7.32;;;;;;;27.75;100.00;94429.19;6167129;23;20004;-88
2023/07/19 07:24:49;;;;;;;17.48;7.35;;;;;;;26.99;100.00;94420.59;6191702;23;20001;-88
2023/07/19 07:27:14;;;;;;;18.23;7.78;;;;;;;27.14;100.00;94424.94;6168777;23;20003;-90
2023/07/19 07:29:42;;;;;;;19.50;6.88;;;;;;;26.86;100.00;94422.75;6191546;23;20075;-89
2023/07/19 07:32:27;;;;;;;14.95;6.78;;;;;;;27.09;100.00;94431.44;6218136;23;20399;-90
2023/07/19 07:34:55;;;;;;;17.73;7.60;;;;;;;26.95;100.00;94434.00;6191475;23;20000;-88
2023/07/19 07:44:21;;;;;;;22.23;7.38;;;;;;;26.78;100.00;94444.22;6094034;23;20006;-89
2023/07/19 07:50:13;;;;;;;15.75;6.50;;;;;;;27.45;100.00;94441.69;6203787;23;20406;-89
2023/07/19 07:52:41;;;;;;;19.58;6.93;;;;;;;27.07;100.00;94441.00;6166854;23;20010;-90
2023/07/19 07:55:17;;;;;;;14.25;7.15;;;;;;;27.23;100.00;94432.69;6191064;23;19997;-89
2023/07/19 07:58:03;;;;;;;20.30;7.38;;;;;;;27.15;100.00;94439.16;6193541;23;20000;-89
2023/07/19 08:00:54;;;;;;;19.05;7.90;;;;;;;27.66;100.00;94432.22;6192361;23;20012;-90
2023/07/19 08:03:29;;;;;;;15.77;7.40;;;;;;;27.96;100.00;94425.81;6144415;23;20324;-89
2023/07/19 08:05:56;;;;;;;24.40;7.80;;;;;;;28.01;100.00;94424.69;6193680;23;19996;-88
2023/07/19 08:08:24;;;;;;;19.40;7.10;;;;;;;28.36;100.00;94418.69;6188120;23;20314;-88
2023/07/19 08:11:00;;;;;;;;;;;;;;;;;;;;;
2023/07/19 08:13:26;;;;;;;28.67;7.25;;;;;;;28.68;100.00;94411.03;6217357;23;20084;-89
2023/07/19 08:15:53;;;;;;;17.73;7.13;;;;;;;28.43;100.00;94412.53;6191318;23;20310;-89
2023/07/19 08:18:51;;;;;;;;;;;;;;;;;;;;;
2023/07/19 08:21:17;;;;;;;20.92;6.68;;;;;;;28.10;100.00;94398.19;6181094;23;20016;-88
2023/07/19 08:23:53;;;;;;;;;;;;;;;;;;;;;
2023/07/19 08:26:19;;;;;;;17.25;6.85;;;;;;;28.40;100.00;94386.38;6217551;23;20075;-88
2023/07/19 08:28:45;;;;;;;18.85;7.00;;;;;;;28.36;100.00;94385.59;6217769;23;20005;-90
2023/07/19 08:31:10;;;;;;;18.60;6.68;;;;;;;28.76;100.00;94382.94;6217343;23;20038;-90
2023/07/19 08:33:36;;;;;;;18.85;8.15;;;;;;;28.70;100.00;94371.78;6217330;23;20000;-89
2023/07/19 08:36:04;;;;;;;14.55;7.25;;;;;;;28.47;100.00;94369.44;6166870;23;20001;-89
2023/07/19 08:38:31;;;;;;;19.02;7.43;;;;;;;28.33;100.00;94375.56;6218036;23;20047;-91
2023/07/19 08:41:02;;;;;;;24.13;8.32;;;;;;;28.25;100.00;94374.78;6217326;23;20118;-89
2023/07/19 08:43:29;;;;;;;20.77;7.70;;;;;;;28.33;100.00;94375.56;6217825;23;20001;-90
2023/07/19 08:45:55;;;;;;;21.17;7.95;;;;;;;28.54;100.00;94379.47;6217527;23;20003;-90
2023/07/19 08:48:21;;;;;;;18.95;7.80;;;;;;;28.58;100.00;94378.31;6217642;23;19997;-89
2023/07/19 08:51:00;;;;;;;27.02;7.93;;;;;;;27.84;100.00;94365.03;6190911;23;20087;-89
2023/07/19 08:53:28;;;;;;;17.00;7.80;;;;;;;28.00;100.00;94367.41;6191001;23;20007;-89
2023/07/19 08:55:54;;;;;;;16.13;7.47;;;;;;;28.12;100.00;94371.66;6217669;23;20003;-88
2023/07/19 08:58:20;;;;;;;21.17;8.07;;;;;;;28.30;100.00;94373.66;6190912;23;20001;-89
2023/07/19 09:00:49;;;;;;;18.23;7.85;;;;;;;28.51;100.00;94364.81;6191212;23;19989;-89
2023/07/19 09:03:18;;;;;;;13.73;7.75;;;;;;;28.57;100.00;94359.84;6191470;23;19997;-89
2023/07/19 09:05:44;;;;;;;21.33;8.52;;;;;;;28.33;100.00;94357.50;6216877;23;20004;-87
2023/07/19 09:08:10;;;;;;;26.02;8.63;;;;;;;28.18;100.00;94362.06;6191092;23;20007;-89
2023/07/19 09:10:36;;;;;;;14.32;7.25;;;;;;;28.75;100.00;94362.53;6190969;23;20004;-88
2023/07/19 09:13:05;;;;;;;18.58;8.30;;;;;;;28.41;100.00;94363.66;6191061;23;20000;-88
2023/07/19 09:15:34;;;;;;;18.17;7.10;;;;;;;28.86;100.00;94354.47;6191783;23;20007;-89
2023/07/19 09:18:01;;;;;;;18.70;8.00;;;;;;;28.24;100.00;94361.72;6191241;23;20076;-89
2023/07/19 09:21:15;;;;;;;25.63;7.63;;;;;;;28.07;100.00;94353.94;6166687;23;19997;-88
2023/07/19 09:23:47;;;;;;;13.85;6.55;;;;;;;29.01;100.00;94361.41;6217151;23;20385;-88
2023/07/19 09:26:15;;;;;;;18.67;7.53;;;;;;;29.43;100.00;94352.88;6189806;23;20473;-87
2023/07/19 09:28:40;;;;;;;21.95;7.57;;;;;;;28.73;100.00;94349.44;6217319;23;20001;-89
2023/07/19 09:31:06;;;;;;;25.10;7.13;;;;;;;28.36;100.00;94351.34;6166629;23;20005;-88
2023/07/19 09:33:31;;;;;;;11.40;6.00;;;;;;;28.78;100.00;94340.19;6217137;23;20424;-87
2023/07/19 09:35:58;;;;;;;22.40;6.43;;;;;;;29.37;100.00;94336.28;6190848;23;20350;-88
2023/07/19 09:38:25;;;;;;;23.40;6.90;;;;;;;29.50;100.00;94333.97;6217257;23;20005;-88
2023/07/19 09:40:51;;;;;;;15.85;7.03;;;;;;;29.43;100.00;94329.38;6190680;23;19997;-86
2023/07/19 09:43:17;;;;;;;17.27;7.30;;;;;;;29.60;100.00;94324.31;6216963;23;19996;-89
2023/07/19 09:45:43;;;;;;;22.30;6.60;;;;;;;28.81;100.00;94322.53;6190793;23;20020;-87
2023/07/19 09:48:09;;;;;;;15.98;6.82;;;;;;;29.57;100.00;94317.75;6166321;23;20394;-87
2023/07/19 09:50:41;;;;;;;15.98;7.35;;;;;;;29.73;100.00;94320.00;6165951;23;20011;-88
2023/07/19 09:53:13;;;;;;;18.98;6.97;;;;;;;29.69;100.00;94316.53;6166499;23;20304;-88
2023/07/19 09:55:39;;;;;;;22.05;7.32;;;;;;;30.15;100.00;94309.38;6191279;23;20314;-88
2023/07/19 09:58:24;;;;;;;17.58;6.95;;;;;;;30.53;100.00;94321.50;6166007;23;20008;-87
2023/07/19 10:00:50;;;;;;;17.67;6.85;;;;;;;30.41;100.00;94323.50;6160585;23;19997;-89
2023/07/19 10:03:19;;;;;;;20.52;7.53;;;;;;;30.16;100.00;94305.53;6190791;23;20008;-88
2023/07/19 10:05:45;;;;;;;15.35;7.03;;;;;;;30.38;100.00;94301.91;6165764;23;19997;-88
2023/07/19 10:08:11;;;;;;;14.85;6.00;;;;;;;30.13;100.00;94300.16;6190307;23;20063;-87
2023/07/19 10:10:41;;;;;;;18.30;6.55;;;;;;;29.88;100.00;94290.25;6190917;23;20005;-88
2023/07/19 10:13:07;;;;;;;17.42;6.80;;;;;;;30.05;100.00;94292.09;6216644;23;20020;-87
2023/07/19 10:15:34;;;;;;;19.75;6.65;;;;;;;30.17;100.00;94292.78;6165251;23;20007;-88
2023/07/19 10:18:03;;;;;;;17.33;6.35;;;;;;;30.36;100.00;94296.91;6190579;23;20000;-88
2023/07/19 10:20:35;;;;;;;14.38;7.15;;;;;;;29.96;100.00;94299.06;6168530;23;19997;-87
2023/07/19 10:23:04;;;;;;;20.02;7.45;;;;;;;29.35;100.00;94290.03;6193061;23;20322;-87
2023/07/19 10:25:38;;;;;;;27.90;7.10;;;;;;;29.40;100.00;94286.19;6193011;23;20007;-89
2023/07/19 10:28:10;;;;;;;;;;;;;;;30.23;100.00;94287.75;6193101;23;20061;-87
2023/07/19 10:30:58;;;;;;;13.52;5.70;;;;;;;30.42;98.49;94291.84;6218898;23;20310;-86
2023/07/19 10:33:25;;;;;;;22.23;7.10;;;;;;;30.64;94.00;94284.38;6191811;23;20030;-87
2023/07/19 10:35:55;;;;;;;17.73;6.68;;;;;;;31.22;93.96;94285.78;6192004;23;20004;-88
2023/07/19 10:38:25;;;;;;;21.00;6.80;;;;;;;31.45;96.40;94294.00;6192043;23;20004;-87
2023/07/19 10:41:05;;;;;;;20.80;6.30;;;;;;;32.01;92.89;94303.78;6192032;23;20000;-87
2023/07/19 10:43:38;;;;;;;21.60;6.35;;;;;;;32.49;89.65;94306.59;6168223;23;20047;-87
2023/07/19 10:46:13;;;;;;;21.48;6.45;;;;;;;31.65;88.16;94287.97;6192061;23;20288;-88
2023/07/19 10:48:57;;;;;;;;;;;;;;;;;;;;;
2023/07/19 10:52:02;;;;;;;15.45;6.00;;;;;;;30.65;100.00;94285.91;6194758;23;20362;-88
2023/07/19 10:54:38;;;;;;;21.85;6.45;;;;;;;29.94;100.00;94294.06;6167465;23;20361;-88
2023/07/19 10:57:34;;;;;;;;;;;;;;;;;;;;;
2023/07/19 11:00:43;;;;;;;;;;;;;;;;;;;;;
2023/07/19 11:03:33;;;;;;;;;;;;;;;;;;;;;
2023/07/19 11:06:23;;;;;;;;;;;;;;;;;;;;;
2023/07/19 11:08:56;;;;;;;14.27;6.20;;;;;;;30.41;100.00;94293.78;6190434;23;20028;-87
2023/07/19 11:11:38;;;;;;;25.40;6.38;;;;;;;30.21;100.00;94282.72;6143649;23;20027;-88
2023/07/19 11:14:13;;;;;;;;;;;;;;;;;;;;;
2023/07/19 11:16:59;;;;;;;22.38;7.60;;;;;;;30.44;100.00;94276.00;6193997;23;20380;-89
2023/07/19 11:19:39;;;;;;;16.98;6.30;;;;;;;30.60;100.00;94286.28;6170513;23;20428;-89
2023/07/19 11:22:12;;;;;;;17.02;6.93;;;;;;;30.15;100.00;94274.28;6191898;23;20402;-87
2023/07/19 11:24:44;;;;;;;19.73;7.00;;;;;;;30.11;100.00;94268.13;6167576;23;19993;-88
2023/07/19 11:27:21;;;;;;;15.63;6.55;;;;;;;30.51;100.00;94262.41;6168225;23;20028;-88
2023/07/19 11:30:00;;;;;;;;;;;;;;;;;;;;;
2023/07/19 11:32:31;;;;;;;13.80;6.32;;;;;;;31.13;100.00;94268.06;6193821;23;20076;-90
2023/07/19 11:35:01;;;;;;;27.20;6.70;;;;;;;31.48;100.00;94265.34;6167084;23;20007;-88
2023/07/19 11:37:36;;;;;;;18.52;6.22;;;;;;;31.59;90.09;94266.00;6167552;23;20007;-88
2023/07/19 11:40:19;;;;;;;;;;;;;;;;;;;;;
2023/07/19 11:43:22;;;;;;;;;;;;;;;;;;;;;
2023/07/19 11:46:16;;;;;;;;;;;;;;;;;;;;;
2023/07/19 11:51:52;;;;;;;;;;;;;;;;;;;;;
2023/07/19 11:54:39;;;;;;;;;;;;;;;;;;;;;
2023/07/19 11:57:48;;;;;;;20.63;5.65;;;;;;;32.39;81.52;94250.59;6217711;23;20051;-87
2023/07/19 12:00:47;;;;;;;;;;;;;;;;;;;;;
2023/07/19 12:03:33;;;;;;;;;;;;;;;;;;;;;
2023/07/19 12:06:14;;;;;;;;;;;;;;;;;;;;;
2023/07/19 12:09:19;;;;;;;;;;;;;;;;;;;;;
2023/07/19 12:11:55;;;;;;;;;;;;;;;;;;;;;
2023/07/19 12:14:47;;;;;;;11.73;5.72;;;;;;;32.58;85.90;94222.81;6193165;23;20036;-87
2023/07/19 12:17:43;;;;;;;;;;;;;;;;;;;;;
2023/07/19 12:20:23;;;;;;;;;;;;;;;;;;;;;
2023/07/19 12:22:57;;;;;;;22.65;6.18;;;;;;;32.48;82.12;94221.03;6193131;23;20020;-87
2023/07/19 12:25:30;;;;;;;18.85;5.40;;;;;;;33.10;81.53;94215.28;6164991;23;20004;-87
2023/07/19 12:28:23;;;;;;;18.77;5.75;;;;;;;32.82;73.65;94217.31;6194828;23;20019;-88
2023/07/19 12:30:50;;;;;;;26.75;6.72;;;;;;;32.70;85.72;94226.84;6193435;23;20442;-87
2023/07/19 12:33:16;;;;;;;23.23;6.13;;;;;;;32.82;79.04;94220.03;6166118;23;19997;-87
2023/07/19 12:35:45;;;;;;;18.17;5.95;;;;;;;32.83;83.11;94213.44;6191176;23;19997;-87